• Join FlightAware (Why Join?)
  • Login
  • US Flag 
06:50AM EDT


 

Airport Tracker/Info


-or-


 

Live Flight TrackerFlight Track Log ✈ EJM77 ✈ 14-Aug-2013 ✈ KBJC - KHOU

Flight Track Log - Related Links

Times and Time Zones

All times are in EDT time to prevent confusion due to time zone crossing. See the EJM77 flight status page for this flight to view local times or setup timezone preferences in your user account.

Time Position Orientation Groundspeed Altitude Reporting Facility
EDT Latitude Longitude Course Direction KTS MPH feet Rate Location/Type
05:36PM 39.8667 -105.0333 153° Southeast 223 257 7,900  Level Denver TRACON
05:37PM 39.8000 -105.0167 169° South 265 305 10,300 2,520 Climbing Denver TRACON
05:38PM 39.7333 -105.0333 191° South 258 297 13,000 2,280 Climbing Denver TRACON
05:39PM 39.6500 -105.0000 163° South 289 333 15,200 1,560 Climbing Denver TRACON
05:40PM 39.5833 -104.9333 142° Southeast 330 380 16,400 1,080 Climbing Denver TRACON
05:41PM 39.3244 -104.6495 153° Southeast  Level FlightAware Approximate
05:41PM 39.4778 -104.8186 140° Southeast 395 455 17,700  Level Denver Center
05:42PM 39.3886 -104.7272 142° Southeast 410 472 18,500 1,140 Climbing Denver Center
05:43PM 39.2869 -104.6206 141° Southeast 437 503 20,100 1,560 Climbing Denver Center
05:44PM 39.1936 -104.5242 141° Southeast 435 501 21,800 1,680 Climbing Denver Center
05:45PM 39.0906 -104.4508 151° Southeast 424 488 23,600 1,800 Climbing Denver Center
05:46PM 38.9656 -104.4117 166° South 415 478 25,600 2,040 Climbing Denver Center
05:47PM 38.8650 -104.3831 168° South 406 467 27,900 2,400 Climbing Denver Center
05:48PM 38.7639 -104.3461 164° South 382 440 30,600 2,160 Climbing Denver Center
05:49PM 38.6714 -104.3089 163° South 354 407 32,400 1,200 Climbing Denver Center
05:50PM 38.5544 -104.2592 162° South 369 425 33,100 540 Climbing Denver Center
05:51PM 38.4481 -104.2144 162° South 398 458 33,600 480 Climbing Denver Center
05:52PM 38.3411 -104.1483 154° Southeast 429 494 34,200 600 Climbing Denver Center
05:53PM 38.2217 -104.0725 153° Southeast 440 506 34,900 600 Climbing Denver Center
05:54PM 38.1136 -104.0006 152° Southeast 452 520 35,500 660 Climbing Denver Center
05:55PM 37.9856 -103.9147 152° Southeast 460 529 36,300 720 Climbing Denver Center
05:56PM 37.8736 -103.8397 152° Southeast 468 539 37,000 300 Climbing Denver Center
05:57PM 37.7417 -103.7539 153° Southeast 473 544 37,000  Level Denver Center
05:58PM 37.6269 -103.6792 153° Southeast 478 550 37,000  Level Denver Center
06:00PM 37.5161 -103.5892 147° Southeast 488 562 37,000  Level Denver Center
06:01PM 37.3897 -103.4808 146° Southeast 489 563 37,000  Level Denver Center
06:02PM 37.2822 -103.3917 147° Southeast 483 556 37,100 420 Climbing Denver Center
06:03PM 37.1586 -103.2881 146° Southeast 477 549 37,900 720 Climbing Denver Center
06:04PM 37.0547 -103.2006 146° Southeast 472 543 38,600 480 Climbing Denver Center
06:05PM 36.9347 -103.0986 146° Southeast 467 537 39,000 180 Climbing Denver Center
06:06PM 36.8286 -103.0097 146° Southeast 477 549 39,000  Level Denver Center
06:07PM 36.6717 -102.8650 143° Southeast 491 565 39,000  Level Albuquerque Center
06:08PM 36.5689 -102.7350 135° Southeast 501 577 39,000  Level Albuquerque Center
06:09PM 36.4728 -102.6156 135° Southeast 493 567 39,000  Level Albuquerque Center
06:10PM 36.3742 -102.4964 136° Southeast 495 570 39,000  Level Albuquerque Center
06:11PM 36.2778 -102.3742 134° Southeast 496 571 39,000  Level Albuquerque Center
06:12PM 36.1792 -102.2544 136° Southeast 496 571 39,000  Level Albuquerque Center
06:13PM 36.0803 -102.1347 136° Southeast 497 572 39,000  Level Albuquerque Center
06:14PM 35.9619 -101.9900 135° Southeast 498 573 39,000  Level Albuquerque Center
06:15PM 35.8481 -101.8956 146° Southeast 499 574 39,000  Level Albuquerque Center
06:16PM 35.7281 -101.8222 154° Southeast 485 558 39,000  Level Albuquerque Center
06:17PM 35.6067 -101.7464 153° Southeast 486 559 39,000  Level Albuquerque Center
06:18PM 35.4886 -101.6733 153° Southeast 487 560 39,000  Level Albuquerque Center
06:20PM 35.3578 -101.5986 155° Southeast 487 560 39,000  Level Albuquerque Center
06:21PM 35.2308 -101.5372 158° South 488 562 39,000  Level Albuquerque Center
06:22PM 35.1061 -101.4897 163° South 479 551 39,000  Level Albuquerque Center
06:23PM 34.9553 -101.4458 167° South 468 539 39,000  Level Albuquerque Center
06:24PM 34.8217 -101.4069 167° South 468 539 39,000  Level Albuquerque Center
06:25PM 34.6953 -101.3711 167° South 467 537 39,000  Level Albuquerque Center
06:26PM 34.5708 -101.3356 167° South 462 532 39,000  Level Albuquerque Center
06:27PM 34.4456 -101.2983 166° South 463 533 39,000  Level Albuquerque Center
06:28PM 34.3192 -101.2658 168° South 464 534 39,000  Level Albuquerque Center
06:29PM 34.1942 -101.2364 169° South 459 528 39,000  Level Albuquerque Center
06:30PM 34.0442 -101.2553 186° South 451 519 39,000  Level Albuquerque Center
06:31PM 33.9211 -101.2750 188° South 446 513 39,000  Level Albuquerque Center
06:32PM 33.8161 -101.2892 186° South 447 514 39,000  Level Albuquerque Center
06:33PM 33.6683 -101.3067 186° South 451 519 39,000  Level Fort Worth Center
06:34PM 33.5300 -101.3256 186° South 451 519 39,000  Level Fort Worth Center
06:35PM 33.4208 -101.3406 187° South 451 519 39,000  Level Fort Worth Center
06:36PM 33.2806 -101.3592 186° South 451 519 39,000  Level Fort Worth Center
06:37PM 33.1714 -101.3742 187° South 446 513 39,000  Level Fort Worth Center
06:38PM 33.0331 -101.3953 187° South 453 521 39,000  Level Fort Worth Center
06:39PM 32.9114 -101.4122 187° South 446 513 39,000  Level Fort Worth Center
06:40PM 32.7878 -101.4314 187° South 451 519 39,000  Level Fort Worth Center
06:41PM 32.6689 -101.4286 179° South 441 507 39,000  Level Fort Worth Center
06:42PM 32.5525 -101.3469 149° Southeast 433 498 39,000  Level Fort Worth Center
06:43PM 32.4422 -101.2658 148° Southeast 449 517 39,000  Level Fort Worth Center
06:44PM 32.3319 -101.1847 148° Southeast 461 531 39,000  Level Fort Worth Center
06:45PM 32.2239 -101.0994 146° Southeast 473 544 39,000  Level Fort Worth Center
06:46PM 32.1158 -101.0117 145° Southeast 473 544 39,000  Level Fort Worth Center
06:47PM 32.0033 -100.9336 150° Southeast 473 544 39,000  Level Fort Worth Center
06:48PM 31.9011 -100.8467 144° Southeast 466 536 39,000  Level Fort Worth Center
06:49PM 31.7886 -100.7617 147° Southeast 461 531 39,000  Level Fort Worth Center
06:50PM 31.6822 -100.6822 148° Southeast 456 525 39,000  Level Fort Worth Center
06:51PM 31.5883 -100.6142 148° Southeast 454 522 39,000  Level Houston Center
06:52PM 31.4814 -100.5342 147° Southeast 456 525 39,000  Level Houston Center
06:53PM 31.3747 -100.4539 147° Southeast 456 525 39,000  Level Houston Center
06:54PM 31.2708 -100.3683 145° Southeast 456 525 39,000  Level Houston Center
06:55PM 31.1669 -100.2836 145° Southeast 456 525 39,000  Level Houston Center
06:56PM 31.0639 -100.1981 145° Southeast 455 524 39,000  Level Houston Center
06:57PM 30.9597 -100.1117 145° Southeast 456 525 39,000  Level Houston Center
06:58PM 30.8292 -100.0189 149° Southeast 459 528 39,000  Level Houston Center
06:59PM 30.7100 -99.9686 160° South 457 526 39,000  Level Houston Center
07:00PM 30.5889 -99.9222 162° South 456 525 39,000  Level Houston Center
07:01PM 30.4664 -99.8800 163° South 457 526 39,000  Level Houston Center
07:02PM 30.3439 -99.8444 166° South 453 521 39,000  Level Houston Center
07:03PM 30.2292 -99.7819 155° Southeast 454 522 39,000  Level Houston Center
07:04PM 30.1231 -99.7017 147° Southeast 453 521 39,000  Level Houston Center
07:05PM 30.0275 -99.6072 139° Southeast 451 519 39,000  Level Houston Center
07:06PM 29.9133 -99.4936 139° Southeast 451 519 39,000  Level Houston Center
07:07PM 29.8172 -99.3997 140° Southeast 453 521 39,000  Level Houston Center
07:08PM 29.7178 -99.3058 141° Southeast 449 517 39,000  Level Houston Center
07:09PM 29.6147 -99.2056 140° Southeast 451 519 39,000  Level Houston Center
07:10PM 29.5186 -99.1128 140° Southeast 452 520 39,000  Level Houston Center
07:12PM 29.4142 -99.0133 140° Southeast 452 520 39,000  Level Houston Center
07:13PM 29.3178 -98.9211 140° Southeast 452 520 39,000  Level Houston Center
07:14PM 29.2211 -98.8283 140° Southeast 455 524 39,000  Level Houston Center
07:15PM 29.1169 -98.7292 140° Southeast 454 522 39,000  Level Houston Center
07:16PM 29.0203 -98.6367 140° Southeast 455 524 39,000 -120 Level Houston Center
07:17PM 28.9308 -98.5236 132° Southeast 451 519 38,800 -540 Descending Houston Center
07:18PM 28.9064 -98.3925 102° East 428 493 37,900 -900 Descending Houston Center
07:19PM 28.8911 -98.2528 97° East 415 478 37,000 -480 Descending Houston Center
07:20PM 28.8839 -98.1164 93° East 428 493 37,000  Level Houston Center
07:21PM 28.8772 -98.0008 94° East 434 499 37,000  Level Houston Center
07:22PM 28.8669 -97.8336 94° East 442 509 37,000  Level Houston Center
07:23PM 28.8583 -97.6981 94° East 434 499 37,000 -600 Level Houston Center
07:24PM 28.8500 -97.5606 94° East 436 502 35,800 -1,380 Descending Houston Center
07:25PM 28.8406 -97.4228 94° East 438 504 34,200 -1,500 Descending Houston Center
07:26PM 28.8317 -97.2850 94° East 439 505 32,800 -2,040 Descending Houston Center
07:27PM 28.8503 -97.1536 81° East 428 493 30,100 -3,060 Descending Houston Center
07:28PM 28.9103 -97.0050 65° Northeast 430 495 26,600 -3,240 Descending Houston Center
07:29PM 28.9611 -96.8808 65° Northeast 434 499 23,500 -2,700 Descending Houston Center
07:30PM 29.0119 -96.7589 64° Northeast 430 495 21,100 -2,100 Descending Houston Center
07:31PM 29.0589 -96.6419 65° Northeast 414 476 19,200 -1,980 Descending Houston Center
07:32PM 29.1053 -96.5286 65° Northeast 400 460 17,100 -2,280 Descending Houston Center
07:33PM 29.1597 -96.3947 65° Northeast 392 451 14,500 -2,400 Descending Houston Center
07:34PM 29.1772 -96.3514 65° Northeast 384 442 13,300 -1,860 Descending Houston Center
07:34PM 29.2097 -96.2639 67° East 386 444 12,300 -960 Descending Houston Center
07:35PM 29.2472 -96.1769 64° Northeast 376 433 11,900 -240 Descending Houston Center
07:36PM 29.2833 -96.0861 65° Northeast 324 373 11,900  Level Houston Center
07:37PM 29.3200 -95.9836 68° East 302 348 12,000 -840 Climbing Houston Center
07:38PM 29.3422 -95.8953 74° East 301 346 10,300 -1,440 Descending Houston Center
07:39PM 29.3675 -95.8103 71° East 266 306 9,100 -780 Descending Houston Center
07:40PM 29.3933 -95.7289 70° East 279 321 8,700 -1,140 Descending Houston Center
07:41PM 29.4211 -95.6339 71° East 299 344 6,800 -1,860 Descending Houston Center
07:42PM 29.4453 -95.5519 71° East 290 334 5,300 -1,620 Descending Houston Center
07:43PM 29.4728 -95.4664 70° East 284 327 3,500 -1,260 Descending Houston Center
07:44PM 29.5353 -95.3989 43° Northeast 260 299 2,600 -960 Descending Houston Center
07:45PM 29.5858 -95.3431 44° Northeast 235 270 1,600 -1,080 Descending Houston Center
07:46PM 29.6261 -95.3022 41° Northeast 146 168 500 -780 Descending Houston Center
07:48PM 29.6531 -95.2678 48° Northeast 193 222 100 -420 Descending Houston Center
07:49PM 29.6454 -95.2789 115° Southeast  Level Estimated